Time;durP1;ratioP1;P1;durP2;ratioP2;P2;SDS_P1;SDS_P2;PMS_P1;PMS_P2;Temp;Humidity;BMP_temperature;BMP_pressure;BME280_temperature;BME280_humidity;BME280_pressure;Samples;Min_cycle;Max_cycle;Signal;HPM_P1;HPM_P2
2021/09/17 00:01:43;;;;;;;11.98;10.85;;;20.60;62.90;;;;;;5054544;28;20538;-72
2021/09/17 00:04:08;;;;;;;11.75;10.55;;;20.60;62.90;;;;;;5054336;28;20171;-72
2021/09/17 00:06:34;;;;;;;11.55;10.45;;;20.50;62.80;;;;;;5053904;28;20179;-70
2021/09/17 00:08:59;;;;;;;13.27;11.90;;;20.60;63.00;;;;;;5054153;28;20175;-69
2021/09/17 00:11:25;;;;;;;13.15;11.82;;;20.50;62.80;;;;;;5054400;28;20225;-69
2021/09/17 00:13:50;;;;;;;12.95;11.65;;;20.50;62.80;;;;;;5053508;28;20203;-69
2021/09/17 00:16:16;;;;;;;11.98;10.82;;;20.50;62.90;;;;;;5054424;28;20585;-69
2021/09/17 00:18:41;;;;;;;12.32;11.18;;;20.50;63.00;;;;;;5054368;28;20225;-70
2021/09/17 00:21:07;;;;;;;12.55;11.35;;;20.50;63.00;;;;;;5053222;28;20179;-71
2021/09/17 00:23:32;;;;;;;13.23;12.02;;;20.50;63.10;;;;;;5054050;28;20271;-70
2021/09/17 00:25:58;;;;;;;13.30;12.02;;;20.50;63.00;;;;;;5054012;28;20179;-71
2021/09/17 00:28:24;;;;;;;13.80;12.25;;;20.50;63.10;;;;;;5053603;28;20175;-68
2021/09/17 00:30:49;;;;;;;14.82;13.27;;;20.50;63.00;;;;;;5053639;28;20667;-69
2021/09/17 00:33:15;;;;;;;13.73;12.27;;;20.50;63.10;;;;;;5053300;28;20713;-69
2021/09/17 00:35:40;;;;;;;14.35;12.93;;;20.50;63.10;;;;;;5054015;28;20354;-69
2021/09/17 00:38:06;;;;;;;15.13;13.63;;;20.50;63.20;;;;;;5053547;28;20177;-70
2021/09/17 00:40:31;;;;;;;15.82;14.13;;;20.50;63.20;;;;;;5053218;28;20215;-70
2021/09/17 00:42:57;;;;;;;15.43;13.82;;;20.40;63.10;;;;;;5053674;28;20266;-70
2021/09/17 00:45:22;;;;;;;15.65;14.15;;;20.40;64.00;;;;;;5053972;28;20179;-71
2021/09/17 00:47:48;;;;;;;15.23;13.73;;;20.40;63.20;;;;;;5052738;28;20629;-72
2021/09/17 00:50:16;;;;;;;17.08;15.15;;;20.40;63.20;;;;;;5053742;28;20225;-70
2021/09/17 00:52:42;;;;;;;16.02;13.90;;;20.40;63.20;;;;;;5053629;28;20171;-70
2021/09/17 00:55:08;;;;;;;16.70;14.95;;;20.40;63.20;;;;;;5052432;28;20354;-69
2021/09/17 00:57:33;;;;;;;16.70;14.40;;;20.40;63.30;;;;;;5053863;28;20172;-69
2021/09/17 00:59:59;;;;;;;16.10;14.40;;;20.40;63.30;;;;;;5035315;28;20210;-70
2021/09/17 01:02:24;;;;;;;15.63;14.13;;;20.40;63.30;;;;;;5034895;28;20630;-71
2021/09/17 01:04:50;;;;;;;15.88;14.27;;;20.40;63.30;;;;;;5053020;28;20171;-70
2021/09/17 01:07:15;;;;;;;16.65;14.93;;;20.40;63.30;;;;;;5053299;28;20186;-69
2021/09/17 01:09:41;;;;;;;17.27;15.30;;;20.40;63.30;;;;;;5052633;28;20186;-68
2021/09/17 01:12:07;;;;;;;15.52;14.07;;;20.40;63.30;;;;;;5035037;28;20280;-68
2021/09/17 01:14:34;;;;;;;16.35;14.65;;;20.40;63.40;;;;;;5035833;28;20240;-68
2021/09/17 01:17:01;;;;;;;17.30;15.50;;;20.40;63.30;;;;;;5052313;28;20171;-69
2021/09/17 01:19:27;;;;;;;16.95;15.25;;;20.40;63.30;;;;;;5053195;28;20640;-70
2021/09/17 01:21:57;;;;;;;18.33;16.42;;;20.40;63.30;;;;;;5053001;28;20175;-69
2021/09/17 01:24:23;;;;;;;17.33;15.52;;;20.40;63.30;;;;;;5052675;28;20590;-70
2021/09/17 01:26:49;;;;;;;17.95;16.05;;;20.40;63.30;;;;;;5052856;28;20641;-69
2021/09/17 01:29:15;;;;;;;16.95;15.25;;;20.40;63.40;;;;;;5019093;28;20198;-68
2021/09/17 01:31:40;;;;;;;17.30;15.52;;;20.40;63.40;;;;;;5052355;28;20171;-68
2021/09/17 01:34:09;;;;;;;17.13;15.40;;;20.40;63.40;;;;;;5053149;28;20190;-69
2021/09/17 01:36:34;;;;;;;18.10;15.85;;;20.40;63.40;;;;;;5052147;28;20176;-69
2021/09/17 01:39:00;;;;;;;18.17;16.27;;;20.40;63.40;;;;;;5052617;28;20210;-70
2021/09/17 01:41:25;;;;;;;17.60;15.80;;;20.40;63.40;;;;;;5053037;28;20174;-71
2021/09/17 01:43:51;;;;;;;16.90;15.13;;;20.40;63.40;;;;;;5051779;28;20183;-71
2021/09/17 01:46:16;;;;;;;17.80;16.10;;;20.40;63.50;;;;;;5052777;28;20637;-71
2021/09/17 01:48:42;;;;;;;18.33;15.70;;;20.30;63.40;;;;;;5052847;28;20210;-71
2021/09/17 01:51:07;;;;;;;17.88;16.08;;;20.30;63.30;;;;;;5051646;28;20211;-70
2021/09/17 01:53:34;;;;;;;18.63;16.65;;;20.30;63.30;;;;;;5052848;28;20182;-71
2021/09/17 01:56:00;;;;;;;18.50;16.40;;;20.30;63.30;;;;;;5052392;28;20659;-70
2021/09/17 01:58:25;;;;;;;18.73;16.70;;;20.30;63.30;;;;;;5051782;28;20179;-70
2021/09/17 02:00:51;;;;;;;19.80;17.80;;;20.30;63.50;;;;;;5034594;28;20263;-70
2021/09/17 02:03:16;;;;;;;19.17;17.05;;;20.30;63.40;;;;;;5052554;28;20210;-70
2021/09/17 02:05:42;;;;;;;18.05;16.17;;;20.30;63.50;;;;;;5051798;28;20175;-70
2021/09/17 02:08:07;;;;;;;19.83;17.75;;;20.30;63.50;;;;;;5052464;28;20186;-69
2021/09/17 02:10:33;;;;;;;18.27;16.38;;;20.30;63.50;;;;;;5052765;28;20884;-68
2021/09/17 02:12:58;;;;;;;20.35;17.88;;;20.30;63.40;;;;;;5051446;28;20231;-69
2021/09/17 02:15:24;;;;;;;18.08;16.23;;;20.30;63.50;;;;;;5052735;28;20585;-69
2021/09/17 02:17:49;;;;;;;19.15;17.25;;;20.30;63.60;;;;;;5052161;28;20220;-70
2021/09/17 02:20:15;;;;;;;20.98;17.95;;;20.30;63.60;;;;;;5051490;28;20719;-70
2021/09/17 02:22:40;;;;;;;20.00;17.38;;;20.30;63.50;;;;;;5055158;28;20175;-70
2021/09/17 02:25:06;;;;;;;19.15;17.13;;;20.30;63.50;;;;;;5056247;28;20235;-70
2021/09/17 02:27:32;;;;;;;20.80;16.15;;;20.30;63.60;;;;;;5055699;28;20182;-70
2021/09/17 02:29:57;;;;;;;18.70;16.73;;;20.30;63.60;;;;;;5056040;28;20175;-68
2021/09/17 02:32:23;;;;;;;19.40;17.38;;;20.30;63.70;;;;;;5056189;28;20359;-69
2021/09/17 02:34:49;;;;;;;19.42;17.38;;;20.30;63.60;;;;;;5055169;28;20623;-69
2021/09/17 02:37:14;;;;;;;18.88;16.98;;;20.30;63.70;;;;;;5056049;28;20687;-70
2021/09/17 02:39:40;;;;;;;18.60;16.70;;;20.20;63.70;;;;;;5056200;28;20211;-70
2021/09/17 02:42:05;;;;;;;18.20;16.27;;;20.30;63.70;;;;;;5055166;28;20174;-70
2021/09/17 02:44:31;;;;;;;18.48;16.67;;;20.20;63.70;;;;;;5056154;28;20197;-72
2021/09/17 02:46:57;;;;;;;19.40;17.38;;;20.20;63.70;;;;;;5055050;28;20182;-72
2021/09/17 02:49:22;;;;;;;19.67;17.58;;;20.20;63.70;;;;;;5055852;28;20221;-71
2021/09/17 02:51:48;;;;;;;18.02;16.13;;;20.20;63.70;;;;;;5055567;28;20171;-69
2021/09/17 02:54:13;;;;;;;18.77;16.83;;;20.20;63.70;;;;;;5055272;28;20187;-70
2021/09/17 02:56:39;;;;;;;19.05;17.15;;;20.20;63.70;;;;;;5055935;28;20171;-70
2021/09/17 02:59:04;;;;;;;18.33;16.52;;;20.20;64.00;;;;;;5055421;28;20203;-70
2021/09/17 03:01:30;;;;;;;17.65;15.75;;;20.20;63.70;;;;;;5055017;28;20171;-71
2021/09/17 03:03:55;;;;;;;18.98;16.98;;;20.20;63.70;;;;;;5055401;28;20537;-71
2021/09/17 03:06:22;;;;;;;17.67;15.88;;;20.20;63.80;;;;;;5055561;28;20213;-70
2021/09/17 03:08:48;;;;;;;18.25;16.35;;;20.20;63.90;;;;;;5054688;28;20522;-69
2021/09/17 03:11:14;;;;;;;17.63;15.73;;;20.20;63.80;;;;;;5055508;28;20225;-69
2021/09/17 03:13:39;;;;;;;17.95;16.13;;;20.20;63.90;;;;;;5055583;28;20179;-68
2021/09/17 03:16:06;;;;;;;18.90;16.77;;;20.20;63.90;;;;;;5054539;28;20184;-69
2021/09/17 03:18:32;;;;;;;18.05;16.15;;;20.20;63.90;;;;;;5055267;28;20182;-70
2021/09/17 03:20:58;;;;;;;17.30;15.60;;;20.20;63.90;;;;;;5054907;28;20644;-71
2021/09/17 03:23:23;;;;;;;18.02;16.10;;;20.20;63.90;;;;;;5054795;28;20179;-71
2021/09/17 03:25:49;;;;;;;18.83;16.92;;;20.20;63.90;;;;;;5055082;28;20178;-69
2021/09/17 03:28:14;;;;;;;16.70;14.98;;;20.20;63.90;;;;;;5055127;28;20167;-69
2021/09/17 03:30:40;;;;;;;16.77;15.13;;;20.10;63.80;;;;;;5054510;28;20630;-69
2021/09/17 03:33:05;;;;;;;20.73;16.13;;;20.20;64.00;;;;;;5053725;28;20229;-70
2021/09/17 03:35:31;;;;;;;17.70;15.80;;;20.10;63.80;;;;;;5054990;28;20175;-70
2021/09/17 03:37:56;;;;;;;17.92;15.43;;;20.10;63.80;;;;;;5053988;28;20536;-71
2021/09/17 03:40:22;;;;;;;18.58;16.63;;;20.10;63.80;;;;;;5055024;28;20680;-71
2021/09/17 03:42:47;;;;;;;17.23;15.35;;;20.10;63.80;;;;;;5054735;28;20168;-71
2021/09/17 03:45:13;;;;;;;16.80;15.02;;;20.10;63.80;;;;;;5054324;28;20183;-71
2021/09/17 03:47:38;;;;;;;16.65;14.73;;;20.10;63.80;;;;;;5054743;28;20179;-72
2021/09/17 03:50:07;;;;;;;19.05;16.15;;;20.10;63.80;;;;;;5054440;28;20652;-70
2021/09/17 03:52:32;;;;;;;17.02;15.23;;;20.10;63.80;;;;;;5054346;28;20171;-70
2021/09/17 03:54:58;;;;;;;16.65;14.93;;;20.10;63.80;;;;;;5054686;28;20171;-70
2021/09/17 03:57:23;;;;;;;17.17;15.38;;;20.10;63.80;;;;;;5054074;28;20237;-71
2021/09/17 03:59:49;;;;;;;15.75;14.25;;;20.10;63.80;;;;;;5054136;28;20677;-71
2021/09/17 04:02:14;;;;;;;17.15;15.45;;;20.10;63.80;;;;;;5054577;28;20171;-70
2021/09/17 04:04:40;;;;;;;16.13;14.52;;;20.10;63.80;;;;;;5053956;28;20194;-70
2021/09/17 04:07:07;;;;;;;16.95;15.15;;;20.10;63.80;;;;;;5054363;28;20172;-70
2021/09/17 04:09:33;;;;;;;17.33;15.55;;;20.10;63.80;;;;;;5054675;28;20187;-70
2021/09/17 04:11:58;;;;;;;16.55;14.95;;;20.10;63.90;;;;;;5053170;28;20567;-69
2021/09/17 04:14:25;;;;;;;17.13;15.32;;;20.10;63.80;;;;;;5054459;28;20190;-69
2021/09/17 04:16:50;;;;;;;17.50;15.73;;;20.10;63.80;;;;;;5054031;28;20187;-69
2021/09/17 04:19:16;;;;;;;17.02;15.35;;;20.10;63.80;;;;;;5053368;28;20657;-70
2021/09/17 04:21:41;;;;;;;18.05;16.20;;;20.10;63.80;;;;;;5054342;28;20644;-71
2021/09/17 04:24:07;;;;;;;17.30;15.50;;;20.10;63.90;;;;;;5054089;28;20383;-70
2021/09/17 04:26:32;;;;;;;16.00;14.30;;;20.10;63.90;;;;;;5053512;28;20179;-69
2021/09/17 04:28:58;;;;;;;16.63;14.38;;;20.10;63.80;;;;;;5053757;28;20228;-69
2021/09/17 04:31:23;;;;;;;16.23;14.52;;;20.10;63.90;;;;;;5053906;28;20637;-69
2021/09/17 04:33:49;;;;;;;18.20;15.48;;;20.00;63.90;;;;;;5052874;28;20179;-70
2021/09/17 04:36:14;;;;;;;17.73;15.88;;;20.00;63.90;;;;;;5054656;28;20179;-70
2021/09/17 04:38:40;;;;;;;16.45;14.77;;;20.00;63.80;;;;;;5053701;28;20179;-71
2021/09/17 04:41:05;;;;;;;16.77;15.10;;;20.00;63.80;;;;;;5052971;28;20282;-71
2021/09/17 04:43:31;;;;;;;16.58;14.88;;;20.00;63.90;;;;;;5053958;28;20167;-72
2021/09/17 04:45:56;;;;;;;18.17;15.23;;;20.00;63.80;;;;;;5053159;28;20175;-72
2021/09/17 04:48:22;;;;;;;17.00;15.05;;;20.00;63.90;;;;;;5052950;28;20641;-71
2021/09/17 04:50:47;;;;;;;15.73;14.10;;;20.00;63.90;;;;;;5053253;28;20193;-70
2021/09/17 04:53:13;;;;;;;16.58;14.88;;;20.00;63.90;;;;;;5053857;28;20175;-70
2021/09/17 04:55:39;;;;;;;16.98;15.15;;;20.00;64.00;;;;;;5052892;28;20215;-70
2021/09/17 04:58:05;;;;;;;17.55;15.55;;;20.00;63.90;;;;;;5053284;28;20183;-70
2021/09/17 05:00:31;;;;;;;19.33;15.82;;;20.00;63.90;;;;;;5052807;28;20294;-71
2021/09/17 05:02:57;;;;;;;16.77;14.98;;;20.00;64.00;;;;;;5052992;28;20168;-72
2021/09/17 05:05:23;;;;;;;17.63;15.52;;;20.00;64.00;;;;;;5053340;28;20205;-71
2021/09/17 05:07:48;;;;;;;14.60;13.20;;;20.00;64.00;;;;;;5052269;28;20540;-70
2021/09/17 05:10:14;;;;;;;16.17;14.55;;;20.00;64.00;;;;;;5053368;28;20183;-68
2021/09/17 05:12:39;;;;;;;16.17;14.57;;;20.00;64.00;;;;;;5053122;28;20223;-69
2021/09/17 05:15:06;;;;;;;18.67;15.52;;;20.00;64.10;;;;;;5052125;28;20178;-69
2021/09/17 05:17:31;;;;;;;19.80;14.80;;;20.00;64.00;;;;;;5053066;28;20229;-69
2021/09/17 05:19:57;;;;;;;16.23;14.45;;;20.00;64.00;;;;;;5052722;28;20218;-71
2021/09/17 05:22:25;;;;;;;16.10;14.38;;;20.00;64.00;;;;;;5052634;28;20217;-69
2021/09/17 05:24:50;;;;;;;16.95;14.27;;;20.00;64.10;;;;;;5052991;28;20185;-70
2021/09/17 05:27:16;;;;;;;15.95;14.23;;;19.90;64.00;;;;;;5053127;28;20175;-69
2021/09/17 05:29:42;;;;;;;16.15;14.48;;;19.90;64.00;;;;;;5052262;28;20167;-68
2021/09/17 05:32:07;;;;;;;17.92;16.05;;;20.00;64.10;;;;;;5052531;28;20190;-69
2021/09/17 05:34:33;;;;;;;18.95;16.92;;;19.90;64.00;;;;;;5053076;28;20171;-69
2021/09/17 05:36:58;;;;;;;19.83;17.05;;;19.90;64.00;;;;;;5052030;28;20186;-70
2021/09/17 05:39:24;;;;;;;18.77;16.77;;;19.90;64.00;;;;;;5052961;28;20217;-71
2021/09/17 05:41:50;;;;;;;19.05;16.95;;;19.90;64.00;;;;;;5052467;28;20194;-70
2021/09/17 05:44:15;;;;;;;18.20;16.30;;;19.90;64.10;;;;;;5052158;28;20266;-72
2021/09/17 05:46:41;;;;;;;18.52;16.33;;;19.90;64.10;;;;;;5052669;28;20181;-72
2021/09/17 05:49:06;;;;;;;15.35;13.70;;;19.90;64.10;;;;;;5052308;28;20179;-71
2021/09/17 05:51:32;;;;;;;13.75;12.27;;;19.90;64.40;;;;;;5052133;28;20186;-70
2021/09/17 05:53:57;;;;;;;13.93;12.50;;;19.90;64.60;;;;;;5052471;28;20171;-70
2021/09/17 05:56:23;;;;;;;12.85;11.43;;;19.90;64.60;;;;;;5052059;28;20167;-71
2021/09/17 05:58:49;;;;;;;11.98;10.77;;;19.90;64.70;;;;;;5051549;28;20172;-70
2021/09/17 06:01:14;;;;;;;12.98;11.73;;;19.90;64.70;;;;;;5052569;28;20209;-71
2021/09/17 06:03:41;;;;;;;12.13;10.93;;;19.90;64.70;;;;;;5052549;28;20195;-71
2021/09/17 06:06:07;;;;;;;11.75;10.55;;;19.90;64.70;;;;;;5051699;28;20179;-70
2021/09/17 06:08:33;;;;;;;12.05;10.93;;;19.90;65.60;;;;;;5052478;28;20680;-69
2021/09/17 06:10:58;;;;;;;11.75;10.55;;;19.90;64.70;;;;;;5051409;28;20171;-69
2021/09/17 06:13:24;;;;;;;10.63;9.63;;;19.90;64.80;;;;;;5052641;28;20213;-69
2021/09/17 06:15:49;;;;;;;11.00;9.90;;;19.90;65.60;;;;;;5052072;28;20167;-70
2021/09/17 06:18:15;;;;;;;11.07;9.43;;;19.90;64.80;;;;;;5051804;28;20204;-70
2021/09/17 06:20:40;;;;;;;10.15;8.95;;;20.00;64.90;;;;;;5052258;28;20210;-71
2021/09/17 06:23:06;;;;;;;15.30;10.85;;;19.90;64.80;;;;;;5052137;28;20171;-75
2021/09/17 06:25:31;;;;;;;14.20;10.52;;;19.90;64.90;;;;;;5051712;28;20175;-73
2021/09/17 06:27:57;;;;;;;10.75;9.68;;;20.00;65.00;;;;;;5052059;28;20198;-67
2021/09/17 06:30:23;;;;;;;11.63;9.95;;;20.00;64.80;;;;;;5052289;28;20302;-67
2021/09/17 06:32:48;;;;;;;10.55;9.48;;;20.00;64.80;;;;;;5051438;28;20182;-73
2021/09/17 06:35:14;;;;;;;11.30;9.43;;;20.00;64.80;;;;;;5052463;28;20179;-72
2021/09/17 06:37:44;;;;;;;11.82;10.32;;;20.00;65.00;;;;;;5052172;28;20301;-70
2021/09/17 06:40:10;;;;;;;14.85;12.00;;;20.10;64.90;;;;;;5051166;28;20218;-72
2021/09/17 06:42:35;;;;;;;14.93;10.93;;;20.10;64.90;;;;;;5052166;28;20646;-72
2021/09/17 06:45:02;;;;;;;11.65;10.55;;;20.10;65.00;;;;;;5051770;28;20177;-73
2021/09/17 06:47:27;;;;;;;11.60;9.80;;;20.10;65.00;;;;;;5051639;28;20171;-73
2021/09/17 06:49:53;;;;;;;11.13;9.80;;;20.10;65.00;;;;;;5051804;28;20590;-71
2021/09/17 06:52:18;;;;;;;11.40;10.15;;;20.10;65.00;;;;;;5052010;28;20175;-72
2021/09/17 06:54:44;;;;;;;10.93;9.52;;;20.10;64.90;;;;;;5051520;28;20213;-72
2021/09/17 06:57:09;;;;;;;16.52;11.10;;;20.20;65.50;;;;;;5051833;28;20186;-75
2021/09/17 06:59:35;;;;;;;10.73;9.63;;;20.20;65.00;;;;;;5051921;28;20219;-74
2021/09/17 07:02:00;;;;;;;12.45;10.30;;;20.20;65.00;;;;;;5051271;28;20171;-75
2021/09/17 07:04:26;;;;;;;12.02;8.88;;;20.20;64.90;;;;;;5052169;28;20179;-75
2021/09/17 07:06:51;;;;;;;10.98;9.00;;;20.20;65.00;;;;;;5051756;28;20229;-72
2021/09/17 07:09:17;;;;;;;12.77;9.70;;;20.20;64.90;;;;;;5054664;28;20229;-71
2021/09/17 07:11:42;;;;;;;11.57;8.68;;;20.20;65.00;;;;;;5055395;28;20250;-68
2021/09/17 07:14:08;;;;;;;11.35;9.25;;;20.20;65.00;;;;;;5054650;28;20178;-68
2021/09/17 07:16:33;;;;;;;10.52;8.93;;;20.20;65.10;;;;;;5055444;28;20262;-69
2021/09/17 07:18:59;;;;;;;11.02;8.65;;;20.20;65.10;;;;;;5055124;28;20681;-69
2021/09/17 07:21:24;;;;;;;9.77;8.73;;;20.20;65.20;;;;;;5054534;28;20652;-69
2021/09/17 07:23:50;;;;;;;8.73;7.82;;;20.20;65.00;;;;;;5055109;28;20289;-69
2021/09/17 07:26:15;;;;;;;9.52;8.13;;;20.20;65.10;;;;;;5055159;28;20175;-68
2021/09/17 07:28:41;;;;;;;9.18;8.15;;;20.30;65.10;;;;;;5054505;28;20205;-69
2021/09/17 07:31:06;;;;;;;12.25;8.55;;;20.30;65.20;;;;;;5054795;28;20542;-70
2021/09/17 07:33:32;;;;;;;8.68;7.63;;;20.30;65.10;;;;;;5055249;28;20178;-68
2021/09/17 07:35:57;;;;;;;11.13;9.15;;;20.30;65.10;;;;;;5054054;28;20233;-68
2021/09/17 07:38:23;;;;;;;10.30;8.35;;;20.30;65.20;;;;;;5063890;28;20725;-69
2021/09/17 07:40:48;;;;;;;8.35;7.55;;;20.30;65.20;;;;;;5062492;28;20207;-68
2021/09/17 07:43:14;;;;;;;9.52;8.00;;;20.40;65.30;;;;;;5052798;28;20167;-71
2021/09/17 07:45:39;;;;;;;8.82;7.78;;;20.30;65.20;;;;;;5053764;28;20178;-69
2021/09/17 07:48:05;;;;;;;9.77;7.63;;;20.40;65.30;;;;;;5053203;28;20513;-68
2021/09/17 07:50:30;;;;;;;8.13;7.25;;;20.40;65.30;;;;;;5052654;28;20206;-69
2021/09/17 07:52:56;;;;;;;8.60;7.70;;;20.40;65.40;;;;;;5053170;28;20175;-69
2021/09/17 07:55:22;;;;;;;9.15;7.13;;;20.40;65.30;;;;;;5053380;28;20221;-71
2021/09/17 07:57:47;;;;;;;7.97;7.13;;;20.40;65.30;;;;;;5053169;28;20179;-75
2021/09/17 08:00:14;;;;;;;7.80;7.10;;;20.40;65.40;;;;;;5054729;28;20630;-73
2021/09/17 08:02:40;;;;;;;8.02;7.07;;;20.40;65.40;;;;;;5054778;28;20175;-73
2021/09/17 08:05:06;;;;;;;8.25;7.38;;;20.40;65.40;;;;;;5053804;28;20178;-76
2021/09/17 08:07:31;;;;;;;9.80;7.47;;;20.40;65.60;;;;;;5054560;28;20172;-72
2021/09/17 08:09:57;;;;;;;9.02;8.23;;;20.40;65.60;;;;;;5054042;28;20602;-72
2021/09/17 08:12:22;;;;;;;9.10;8.23;;;20.40;65.70;;;;;;5053439;28;20218;-72
2021/09/17 08:14:48;;;;;;;9.68;7.72;;;20.40;65.70;;;;;;5054361;28;20229;-72
2021/09/17 08:17:13;;;;;;;9.30;7.78;;;20.30;65.70;;;;;;5054389;28;20179;-76
2021/09/17 08:19:39;;;;;;;7.65;6.95;;;20.40;65.80;;;;;;5052815;28;20214;-76
2021/09/17 08:22:05;;;;;;;9.18;8.25;;;20.40;65.80;;;;;;5053692;28;20245;-75
2021/09/17 08:24:30;;;;;;;7.78;7.15;;;20.40;65.90;;;;;;5053207;28;20630;-74
2021/09/17 08:26:57;;;;;;;7.95;7.18;;;20.40;65.80;;;;;;5060297;28;20171;-71
2021/09/17 08:29:23;;;;;;;11.48;8.52;;;20.40;65.90;;;;;;5062494;28;20682;-71
2021/09/17 08:31:49;;;;;;;12.30;8.05;;;20.40;65.80;;;;;;5063538;28;20170;-72
2021/09/17 08:34:15;;;;;;;8.48;7.68;;;20.50;65.90;;;;;;5061462;28;20302;-71
2021/09/17 08:36:40;;;;;;;9.10;7.90;;;20.50;65.80;;;;;;5053636;28;20258;-72
2021/09/17 08:39:06;;;;;;;8.00;7.20;;;20.40;65.80;;;;;;5052319;28;20199;-73
2021/09/17 08:41:31;;;;;;;9.35;7.85;;;20.50;65.80;;;;;;5053299;28;20588;-72
2021/09/17 08:43:57;;;;;;;9.00;7.10;;;20.50;65.80;;;;;;5053082;28;20545;-72
2021/09/17 08:46:22;;;;;;;8.00;6.85;;;20.50;65.90;;;;;;5052359;28;20233;-73
2021/09/17 08:48:51;;;;;;;7.05;6.18;;;20.60;65.80;;;;;;5053111;28;20254;-74
2021/09/17 08:51:17;;;;;;;7.35;6.68;;;20.60;65.70;;;;;;5053165;28;20179;-73
2021/09/17 08:53:43;;;;;;;7.68;6.57;;;20.60;65.60;;;;;;5052455;28;20625;-72
2021/09/17 08:56:17;;;;;;;7.40;6.70;;;20.70;65.50;;;;;;5052772;28;20163;-73
2021/09/17 08:58:43;;;;;;;7.38;5.80;;;20.70;65.40;;;;;;5051369;28;20217;-73
2021/09/17 09:01:27;;;;;;;7.47;6.30;;;20.70;65.40;;;;;;5052150;28;20182;-73
2021/09/17 09:03:53;;;;;;;6.53;5.90;;;20.80;65.50;;;;;;5054436;28;20630;-72
2021/09/17 09:06:19;;;;;;;7.70;5.97;;;20.70;65.40;;;;;;5055568;28;20266;-74
2021/09/17 09:08:45;;;;;;;6.93;6.13;;;20.70;65.50;;;;;;5052565;28;20183;-71
2021/09/17 09:11:25;;;;;;;6.40;5.82;;;20.70;65.50;;;;;;5059666;28;20233;-74
2021/09/17 09:14:05;;;;;;;6.70;6.07;;;20.70;65.50;;;;;;5052535;28;20309;-74
2021/09/17 09:16:30;;;;;;;6.32;5.72;;;20.70;65.50;;;;;;5053436;28;20190;-74
2021/09/17 09:18:56;;;;;;;6.25;5.57;;;20.70;65.50;;;;;;5052832;28;20584;-76
2021/09/17 09:21:25;;;;;;;6.65;5.82;;;20.70;65.50;;;;;;5052523;28;20175;-76
2021/09/17 09:24:09;;;;;;;6.55;5.70;;;20.70;65.50;;;;;;5053028;28;20699;-74
2021/09/17 09:26:34;;;;;;;8.02;5.60;;;20.70;65.40;;;;;;5053272;28;20179;-73
2021/09/17 09:29:00;;;;;;;6.28;5.75;;;20.70;65.40;;;;;;5052300;28;20625;-71
2021/09/17 09:31:25;;;;;;;5.97;5.38;;;20.80;65.50;;;;;;5052159;28;20579;-70
2021/09/17 09:33:52;;;;;;;6.63;5.82;;;20.80;65.40;;;;;;5034779;28;20205;-69
2021/09/17 09:36:19;;;;;;;8.50;6.22;;;20.80;65.40;;;;;;5038351;28;20178;-74
2021/09/17 09:38:54;;;;;;;6.72;6.05;;;20.80;65.40;;;;;;5056103;28;20183;-75
2021/09/17 09:41:24;;;;;;;6.45;5.47;;;20.80;65.20;;;;;;5052998;28;20236;-77
2021/09/17 09:43:56;;;;;;;6.05;5.47;;;20.90;65.30;;;;;;5051996;28;20683;-73
2021/09/17 09:46:41;;;;;;;6.50;5.90;;;20.90;65.50;;;;;;5053053;28;20173;-71
2021/09/17 09:49:14;;;;;;;7.22;5.63;;;20.90;65.40;;;;;;5051991;28;20174;-72
2021/09/17 09:51:40;;;;;;;7.20;5.50;;;21.00;65.50;;;;;;5052745;28;20178;-72
2021/09/17 09:54:06;;;;;;;6.68;6.03;;;21.00;65.40;;;;;;5052208;28;20178;-73
2021/09/17 09:56:33;;;;;;;6.22;5.63;;;21.00;65.20;;;;;;5052059;28;20179;-69
2021/09/17 09:59:01;;;;;;;6.85;6.10;;;21.00;65.20;;;;;;5052279;28;20641;-71
2021/09/17 10:01:27;;;;;;;7.43;5.70;;;21.00;65.30;;;;;;5052810;28;20201;-71
2021/09/17 10:03:52;;;;;;;8.60;5.80;;;21.00;65.30;;;;;;5051587;28;20176;-70
2021/09/17 10:06:18;;;;;;;7.25;6.45;;;21.00;66.10;;;;;;5034860;28;20637;-71
2021/09/17 10:08:44;;;;;;;6.63;5.95;;;21.00;65.20;;;;;;5034976;28;20640;-69
2021/09/17 10:11:10;;;;;;;6.32;5.70;;;21.10;65.10;;;;;;5051423;28;20215;-69
2021/09/17 10:13:35;;;;;;;6.38;5.75;;;21.10;65.10;;;;;;5052439;28;20603;-69
2021/09/17 10:16:01;;;;;;;5.82;5.32;;;21.00;65.00;;;;;;5052393;28;20175;-70
2021/09/17 10:18:26;;;;;;;7.47;5.78;;;21.00;65.00;;;;;;5034142;28;20171;-71
2021/09/17 10:20:52;;;;;;;6.50;5.60;;;21.00;65.00;;;;;;5052289;28;20293;-72
2021/09/17 10:23:39;;;;;;;7.38;6.10;;;21.00;65.00;;;;;;5034700;28;20214;-71
2021/09/17 10:26:05;;;;;;;6.80;6.20;;;21.00;65.10;;;;;;5051594;28;20292;-74
2021/09/17 10:28:31;;;;;;;6.90;6.20;;;21.00;65.10;;;;;;5052327;28;20676;-71
2021/09/17 10:31:11;;;;;;;6.85;6.13;;;21.00;65.00;;;;;;5052176;28;20183;-71
2021/09/17 10:33:36;;;;;;;6.50;5.90;;;21.00;65.00;;;;;;5052807;28;20229;-72
2021/09/17 10:36:02;;;;;;;6.85;5.55;;;21.00;64.90;;;;;;5034276;28;20625;-72
2021/09/17 10:38:28;;;;;;;7.97;6.07;;;21.00;64.90;;;;;;5033966;28;20274;-74
2021/09/17 10:41:01;;;;;;;8.02;5.97;;;21.10;64.90;;;;;;5052183;28;20215;-67
2021/09/17 10:43:37;;;;;;;9.98;5.85;;;21.10;64.80;;;;;;5054464;28;20183;-68
2021/09/17 10:46:07;;;;;;;9.77;6.20;;;21.10;64.80;;;;;;5055105;28;20183;-70
2021/09/17 10:48:41;;;;;;;7.40;5.57;;;21.20;64.90;;;;;;5055965;28;20182;-69
2021/09/17 10:51:10;;;;;;;7.95;5.78;;;21.20;64.90;;;;;;5055830;28;20170;-68
2021/09/17 10:53:39;;;;;;;8.00;5.00;;;21.20;64.90;;;;;;5037351;28;20171;-68
2021/09/17 10:56:06;;;;;;;6.53;5.15;;;21.20;64.90;;;;;;5055563;28;20175;-68
2021/09/17 10:58:35;;;;;;;7.32;5.10;;;21.20;64.80;;;;;;5055971;28;20179;-71
2021/09/17 11:01:10;;;;;;;8.68;4.82;;;21.20;64.90;;;;;;5054550;28;20681;-69
2021/09/17 11:03:35;;;;;;;5.80;4.90;;;21.20;64.90;;;;;;5055922;28;20618;-69
2021/09/17 11:06:22;;;;;;;5.68;4.50;;;21.20;64.90;;;;;;5055471;28;20648;-69
2021/09/17 11:09:03;;;;;;;7.57;5.35;;;21.20;65.00;;;;;;5055529;28;20681;-72
2021/09/17 11:11:46;;;;;;;5.55;5.00;;;21.20;65.00;;;;;;5055401;28;20241;-73
2021/09/17 11:14:14;;;;;;;7.20;5.50;;;21.20;65.00;;;;;;5054716;28;20228;-74
2021/09/17 11:16:40;;;;;;;7.85;5.60;;;21.20;65.00;;;;;;5055417;28;20556;-72
2021/09/17 11:19:09;;;;;;;9.23;5.65;;;21.20;64.90;;;;;;5055387;28;20178;-74
2021/09/17 11:21:36;;;;;;;8.77;6.10;;;21.30;64.80;;;;;;5054572;28;20657;-73
2021/09/17 11:24:02;;;;;;;11.38;6.18;;;21.40;64.60;;;;;;5054894;28;20657;-75
2021/09/17 11:26:30;;;;;;;13.20;6.97;;;21.40;64.50;;;;;;5055527;28;20312;-75
2021/09/17 11:29:04;;;;;;;8.57;5.82;;;21.40;64.40;;;;;;5054305;28;20187;-74
2021/09/17 11:31:36;;;;;;;13.38;6.50;;;21.40;64.30;;;;;;5055321;28;20193;-71
2021/09/17 11:34:06;;;;;;;10.38;6.43;;;21.40;64.30;;;;;;5054909;28;20171;-74
2021/09/17 11:36:39;;;;;;;7.10;5.75;;;21.40;64.30;;;;;;5056611;28;20186;-74
2021/09/17 11:39:18;;;;;;;9.93;6.25;;;21.40;64.20;;;;;;5037676;28;20554;-76
2021/09/17 11:41:44;;;;;;;8.98;6.38;;;21.40;64.30;;;;;;5054513;28;20190;-73
2021/09/17 11:44:10;;;;;;;10.98;6.30;;;21.40;64.40;;;;;;5064471;28;20179;-75
2021/09/17 11:46:36;;;;;;;9.32;6.97;;;21.40;64.40;;;;;;5074982;28;20177;-77
2021/09/17 11:49:01;;;;;;;10.57;7.53;;;21.40;64.40;;;;;;5073868;28;20177;-75
2021/09/17 11:51:27;;;;;;;11.82;7.55;;;21.40;64.30;;;;;;5075074;28;20179;-76
2021/09/17 11:53:52;;;;;;;8.02;6.68;;;21.40;64.30;;;;;;5035113;28;20176;-73
2021/09/17 11:56:18;;;;;;;10.10;7.22;;;21.50;64.10;;;;;;5033875;28;20172;-75
2021/09/17 11:58:44;;;;;;;10.95;7.78;;;21.50;63.90;;;;;;5034888;28;20542;-75
2021/09/17 12:01:17;;;;;;;10.48;6.72;;;21.50;63.90;;;;;;5034704;28;20230;-75
2021/09/17 12:03:43;;;;;;;11.95;7.68;;;21.50;64.00;;;;;;5034256;28;20172;-78
2021/09/17 12:06:10;;;;;;;9.93;7.10;;;21.50;63.90;;;;;;5033211;28;20507;-75
2021/09/17 12:08:36;;;;;;;8.82;7.22;;;21.40;63.90;;;;;;5033597;28;20184;-73
2021/09/17 12:11:01;;;;;;;10.32;7.50;;;21.40;64.00;;;;;;5073501;28;20177;-73
2021/09/17 12:13:27;;;;;;;9.48;7.35;;;21.40;64.00;;;;;;5073469;28;20174;-73
2021/09/17 12:15:55;;;;;;;9.30;7.35;;;21.40;64.00;;;;;;5074096;28;20253;-75
2021/09/17 12:18:22;;;;;;;9.90;7.43;;;21.40;63.90;;;;;;5073780;28;20179;-74
2021/09/17 12:20:49;;;;;;;11.40;7.82;;;21.40;63.90;;;;;;5074137;28;20210;-74
2021/09/17 12:23:16;;;;;;;10.25;7.78;;;21.40;63.90;;;;;;5068845;28;20182;-77
2021/09/17 12:25:42;;;;;;;10.43;8.40;;;21.40;63.90;;;;;;5053730;28;20179;-74
2021/09/17 12:28:10;;;;;;;9.63;7.45;;;21.40;64.00;;;;;;5053749;28;20584;-74
2021/09/17 12:30:37;;;;;;;9.95;8.02;;;21.40;63.60;;;;;;5054042;28;20262;-73
2021/09/17 12:33:05;;;;;;;12.73;7.85;;;21.50;63.50;;;;;;5053551;28;20250;-74